createdAt,value
2019-02-28T00:00:47.666Z,98643.62
2019-02-28T00:01:55.939Z,98638.45
2019-02-28T00:03:04.225Z,98636.28
2019-02-28T00:04:12.332Z,98637.98
2019-02-28T00:05:20.444Z,98640.52
2019-02-28T00:06:28.674Z,98642.57
2019-02-28T00:07:37.071Z,98647.10
2019-02-28T00:08:45.194Z,98633.91
2019-02-28T00:09:57.399Z,98629.96
2019-02-28T00:11:05.032Z,98631.55
2019-02-28T00:12:14.424Z,98630.13
2019-02-28T00:13:22.907Z,98630.53
2019-02-28T00:14:31.196Z,98633.43
2019-02-28T00:15:39.579Z,98632.48
2019-02-28T00:16:47.410Z,98626.26
2019-02-28T00:17:55.738Z,98621.83
2019-02-28T00:19:03.884Z,98613.55
2019-02-28T00:20:11.954Z,98617.03
2019-02-28T00:21:20.404Z,98620.44
2019-02-28T00:22:28.545Z,98619.56
2019-02-28T00:23:38.000Z,98617.03
2019-02-28T00:24:45.991Z,98613.55
2019-02-28T00:25:54.003Z,98611.38
2019-02-28T00:27:02.297Z,98611.86
2019-02-28T00:28:10.584Z,98611.86
2019-02-28T00:29:18.799Z,98605.63
2019-02-28T00:30:26.866Z,98608.75
2019-02-28T00:31:34.845Z,98603.09
2019-02-28T00:32:42.837Z,98606.21
2019-02-28T00:33:50.808Z,98600.20
2019-02-28T00:34:58.924Z,98603.31
2019-02-28T00:36:07.066Z,98604.22
2019-02-28T00:37:15.162Z,98606.86
2019-02-28T00:38:23.362Z,98603.85
2019-02-28T00:39:34.740Z,98603.38
2019-02-28T00:40:40.966Z,98600.00
2019-02-28T00:41:48.987Z,98604.80
2019-02-28T00:42:57.190Z,98600.95
2019-02-28T00:44:05.601Z,98597.00
2019-02-28T00:45:15.425Z,98590.98
2019-02-28T00:46:23.623Z,98589.55
2019-02-28T00:47:31.825Z,98591.72
2019-02-28T00:48:40.128Z,98582.48
2019-02-28T00:49:48.012Z,98585.02
2019-02-28T00:50:58.466Z,98579.85
2019-02-28T00:52:05.758Z,98579.85
2019-02-28T00:53:13.680Z,98581.64
2019-02-28T00:54:25.742Z,98580.33
2019-02-28T00:55:33.723Z,98577.22
2019-02-28T00:56:41.825Z,98577.58
2019-02-28T00:57:50.120Z,98574.84
2019-02-28T00:59:00.506Z,98569.09
2019-02-28T01:00:14.693Z,98568.14
2019-02-28T01:01:22.827Z,98558.91
2019-02-28T01:02:31.009Z,98552.90
2019-02-28T01:03:39.370Z,98555.43
2019-02-28T01:04:47.270Z,98549.89
2019-02-28T01:05:55.525Z,98547.73
2019-02-28T01:07:03.505Z,98545.94
2019-02-28T01:08:11.578Z,98544.98
2019-02-28T01:09:19.663Z,98541.88
2019-02-28T01:10:27.848Z,98534.81
2019-02-28T01:11:35.994Z,98536.49
2019-02-28T01:12:44.010Z,98536.42
2019-02-28T01:13:52.184Z,98534.05
2019-02-28T01:15:00.316Z,98533.20
2019-02-28T01:16:08.374Z,98531.30
2019-02-28T01:17:16.872Z,98526.03
2019-02-28T01:18:25.202Z,98518.11
2019-02-28T01:19:33.360Z,98524.71
2019-02-28T01:20:41.969Z,98517.27
2019-02-28T01:21:49.973Z,98505.88
2019-02-28T01:22:58.528Z,98512.84
2019-02-28T01:24:07.384Z,98505.03
2019-02-28T01:25:18.143Z,98500.71
2019-02-28T01:26:26.251Z,98505.51
2019-02-28T01:27:34.378Z,98499.50
2019-02-28T01:28:43.010Z,98499.58
2019-02-28T01:29:51.174Z,98494.77
2019-02-28T01:30:59.287Z,98487.92
2019-02-28T01:32:07.198Z,98491.98
2019-02-28T01:33:15.071Z,98491.23
2019-02-28T01:34:23.158Z,98481.72
2019-02-28T01:35:31.072Z,98481.72
2019-02-28T01:36:39.371Z,98479.08
2019-02-28T01:37:47.282Z,98478.23
2019-02-28T01:38:57.823Z,98470.80
2019-02-28T01:40:08.054Z,98471.28
2019-02-28T01:41:15.982Z,98473.07
2019-02-28T01:42:23.967Z,98473.25
2019-02-28T01:43:32.226Z,98466.88
2019-02-28T01:44:40.670Z,98469.51
2019-02-28T01:45:48.916Z,98470.83
2019-02-28T01:46:56.964Z,98469.87
2019-02-28T01:48:05.139Z,98463.28
2019-02-28T01:49:13.002Z,98464.02
2019-02-28T01:50:21.142Z,98457.83
2019-02-28T01:51:35.700Z,98453.47
2019-02-28T01:52:44.415Z,98452.37
2019-02-28T01:53:50.470Z,98449.84
2019-02-28T01:54:59.181Z,98456.06
2019-02-28T01:56:07.267Z,98454.74
2019-02-28T01:57:15.195Z,98449.58
2019-02-28T01:58:23.545Z,98446.54
2019-02-28T01:59:31.807Z,98440.35
2019-02-28T02:00:40.179Z,98442.58
2019-02-28T02:01:48.434Z,98440.35
2019-02-28T02:02:56.864Z,98439.19
2019-02-28T02:04:04.949Z,98441.24
2019-02-28T02:05:13.269Z,98430.22
2019-02-28T02:06:22.591Z,98430.52
2019-02-28T02:07:33.353Z,98427.88
2019-02-28T02:08:41.671Z,98424.03
2019-02-28T02:09:50.437Z,98422.41
2019-02-28T02:10:58.775Z,98418.09
2019-02-28T02:12:06.897Z,98426.38
2019-02-28T02:13:15.245Z,98421.68
2019-02-28T02:14:23.345Z,98420.10
2019-02-28T02:15:31.944Z,98414.35
2019-02-28T02:16:40.239Z,98409.55
2019-02-28T02:17:48.753Z,98410.03
2019-02-28T02:18:56.961Z,98415.30
2019-02-28T02:20:11.258Z,98407.47
2019-02-28T02:21:19.796Z,98395.56
2019-02-28T02:22:27.881Z,98400.25
2019-02-28T02:23:35.782Z,98401.20
2019-02-28T02:24:44.188Z,98401.20
2019-02-28T02:25:52.295Z,98386.88
2019-02-28T02:27:00.519Z,98384.61
2019-02-28T02:28:08.600Z,98387.73
2019-02-28T02:29:16.693Z,98384.72
2019-02-28T02:30:25.868Z,98388.57
2019-02-28T02:31:34.114Z,98381.50
2019-02-28T02:32:42.367Z,98379.27
2019-02-28T02:33:52.425Z,98375.39
2019-02-28T02:35:05.806Z,98372.28
2019-02-28T02:36:10.075Z,98367.88
2019-02-28T02:37:18.029Z,98362.98
2019-02-28T02:38:26.044Z,98366.56
2019-02-28T02:39:34.011Z,98365.24
2019-02-28T02:40:42.009Z,98359.50
2019-02-28T02:41:50.474Z,98361.66
2019-02-28T02:42:58.476Z,98363.82
2019-02-28T02:44:06.648Z,98359.02
2019-02-28T02:45:16.235Z,98352.51
2019-02-28T02:46:24.290Z,98351.11
2019-02-28T02:47:32.648Z,98348.48
2019-02-28T02:48:42.289Z,98353.38
2019-02-28T02:49:56.120Z,98347.23
2019-02-28T02:51:00.481Z,98347.63
2019-02-28T02:52:08.438Z,98341.52
2019-02-28T02:53:16.549Z,98339.80
2019-02-28T02:54:24.552Z,98345.08
2019-02-28T02:55:32.855Z,98341.13
2019-02-28T02:56:42.063Z,98338.89
2019-02-28T02:57:51.900Z,98335.66
2019-02-28T02:59:02.120Z,98335.77
2019-02-28T03:00:16.250Z,98332.30
2019-02-28T03:01:24.690Z,98325.89
2019-02-28T03:02:33.138Z,98330.21
2019-02-28T03:03:44.235Z,98325.89
2019-02-28T03:04:58.020Z,98321.09
2019-02-28T03:06:01.918Z,98314.03
2019-02-28T03:07:10.401Z,98317.98
2019-02-28T03:08:18.509Z,98313.19
2019-02-28T03:09:26.602Z,98307.66
2019-02-28T03:10:34.794Z,98311.61
2019-02-28T03:11:42.989Z,98308.50
2019-02-28T03:12:51.423Z,98303.41
2019-02-28T03:13:59.700Z,98294.55
2019-02-28T03:15:13.542Z,98295.03
2019-02-28T03:16:21.810Z,98294.48
2019-02-28T03:17:30.322Z,98288.25
2019-02-28T03:18:38.699Z,98292.09
2019-02-28T03:19:46.960Z,98287.09
2019-02-28T03:20:55.600Z,98281.73
2019-02-28T03:22:03.685Z,98274.56
2019-02-28T03:23:11.868Z,98270.02
2019-02-28T03:24:19.999Z,98272.06
2019-02-28T03:25:29.010Z,98273.39
2019-02-28T03:26:41.363Z,98269.43
2019-02-28T03:27:46.769Z,98265.03
2019-02-28T03:28:55.255Z,98262.39
2019-02-28T03:30:03.323Z,98262.39
2019-02-28T03:31:14.710Z,98263.72
2019-02-28T03:32:21.143Z,98266.42
2019-02-28T03:33:29.324Z,98259.84
2019-02-28T03:34:37.438Z,98254.09
2019-02-28T03:35:45.378Z,98246.41
2019-02-28T03:36:57.001Z,98246.03
2019-02-28T03:38:10.639Z,98239.27
2019-02-28T03:39:13.035Z,98237.95
2019-02-28T03:40:21.302Z,98235.54
2019-02-28T03:41:29.492Z,98237.33
2019-02-28T03:42:37.515Z,98233.27
2019-02-28T03:43:45.779Z,98232.91
2019-02-28T03:44:57.128Z,98237.05
2019-02-28T03:46:06.394Z,98235.00
2019-02-28T03:47:13.381Z,98232.95
2019-02-28T03:48:21.585Z,98235.11
2019-02-28T03:49:29.734Z,98231.82
2019-02-28T03:50:37.698Z,98233.61
2019-02-28T03:51:45.954Z,98238.52
2019-02-28T03:52:54.463Z,98235.99
2019-02-28T03:54:02.588Z,98238.73
2019-02-28T03:55:13.802Z,98226.88
2019-02-28T03:56:22.105Z,98226.77
2019-02-28T03:57:30.132Z,98225.08
2019-02-28T03:58:42.873Z,98217.37
2019-02-28T03:59:55.366Z,98215.97
2019-02-28T04:00:58.059Z,98212.09
2019-02-28T04:02:06.326Z,98214.66
2019-02-28T04:03:14.377Z,98216.23
2019-02-28T04:04:22.463Z,98214.55
2019-02-28T04:05:30.650Z,98198.26
2019-02-28T04:06:40.713Z,98214.91
2019-02-28T04:07:52.920Z,98208.80
2019-02-28T04:09:07.332Z,98204.73
2019-02-28T04:10:11.450Z,98207.84
2019-02-28T04:11:19.485Z,98205.32
2019-02-28T04:12:27.662Z,98200.05
2019-02-28T04:13:35.778Z,98202.40
2019-02-28T04:14:43.977Z,98205.14
2019-02-28T04:16:07.787Z,98199.51
2019-02-28T04:17:02.317Z,98207.05
2019-02-28T04:18:10.503Z,98204.89
2019-02-28T04:19:22.668Z,98208.59
2019-02-28T04:20:35.909Z,98212.43
2019-02-28T04:21:38.123Z,98205.73
2019-02-28T04:22:46.165Z,98209.46
2019-02-28T04:23:54.492Z,98207.59
2019-02-28T04:25:02.666Z,98203.05
2019-02-28T04:26:10.685Z,98200.30
2019-02-28T04:27:18.740Z,98204.99
2019-02-28T04:28:26.923Z,98203.59
2019-02-28T04:29:35.175Z,98199.53
2019-02-28T04:30:44.094Z,98194.73
2019-02-28T04:31:52.575Z,98188.15
2019-02-28T04:33:02.359Z,98193.78
2019-02-28T04:34:13.478Z,98190.67
2019-02-28T04:35:24.301Z,98186.60
2019-02-28T04:36:35.499Z,98184.81
2019-02-28T04:37:44.910Z,98182.17
2019-02-28T04:38:51.696Z,98183.02
2019-02-28T04:40:00.238Z,98179.66
2019-02-28T04:41:08.337Z,98176.06
2019-02-28T04:42:16.425Z,98168.52
2019-02-28T04:43:24.730Z,98162.41
2019-02-28T04:44:32.791Z,98159.30
2019-02-28T04:45:41.268Z,98159.41
2019-02-28T04:46:49.768Z,98160.72
2019-02-28T04:47:58.236Z,98154.25
2019-02-28T04:49:06.407Z,98154.25
2019-02-28T04:50:14.983Z,98155.09
2019-02-28T04:51:23.213Z,98150.66
2019-02-28T04:52:31.415Z,98151.98
2019-02-28T04:53:40.043Z,98149.70
2019-02-28T04:54:48.369Z,98143.70
2019-02-28T04:55:56.541Z,98145.50
2019-02-28T04:57:04.747Z,98142.03
2019-02-28T04:58:12.819Z,98141.30
2019-02-28T04:59:20.945Z,98140.91
2019-02-28T05:00:28.990Z,98127.73
2019-02-28T05:01:37.048Z,98125.20
2019-02-28T05:02:45.242Z,98118.84
2019-02-28T05:03:53.425Z,98122.80
2019-02-28T05:05:01.539Z,98112.73
2019-02-28T05:06:09.637Z,98111.77
2019-02-28T05:07:17.565Z,98107.94
2019-02-28T05:08:25.709Z,98109.25
2019-02-28T05:09:33.657Z,98107.54
2019-02-28T05:10:41.637Z,98109.34
2019-02-28T05:11:50.105Z,98105.49
2019-02-28T05:12:58.751Z,98107.28
2019-02-28T05:14:07.186Z,98106.56
2019-02-28T05:15:16.416Z,98096.61
2019-02-28T05:16:24.456Z,98100.92
2019-02-28T05:17:32.650Z,98097.17
2019-02-28T05:18:40.748Z,98093.69
2019-02-28T05:19:48.823Z,98087.22
2019-02-28T05:20:57.332Z,98095.84
2019-02-28T05:22:05.329Z,98096.33
2019-02-28T05:23:14.291Z,98098.48
2019-02-28T05:24:22.399Z,98092.27
2019-02-28T05:25:30.617Z,98093.14
2019-02-28T05:26:38.603Z,98088.12
2019-02-28T05:27:46.775Z,98088.12
2019-02-28T05:28:55.202Z,98089.80
2019-02-28T05:30:03.777Z,98092.44
2019-02-28T05:31:11.902Z,98093.75
2019-02-28T05:32:20.000Z,98081.05
2019-02-28T05:33:28.358Z,98089.69
2019-02-28T05:34:36.369Z,98088.25
2019-02-28T05:35:44.557Z,98086.46
2019-02-28T05:36:52.669Z,98075.08
2019-02-28T05:38:01.383Z,98078.11
2019-02-28T05:39:09.503Z,98073.68
2019-02-28T05:40:18.271Z,98069.73
2019-02-28T05:41:26.788Z,98068.66
2019-02-28T05:42:34.983Z,98067.23
2019-02-28T05:43:43.197Z,98068.06
2019-02-28T05:44:51.412Z,98064.87
2019-02-28T05:46:00.372Z,98054.78
2019-02-28T05:47:08.635Z,98058.06
2019-02-28T05:48:16.870Z,98058.42
2019-02-28T05:49:25.589Z,98058.78
2019-02-28T05:50:33.782Z,98054.83
2019-02-28T05:51:42.226Z,98056.98
2019-02-28T05:52:50.362Z,98055.19
2019-02-28T05:53:58.650Z,98061.78
2019-02-28T05:55:09.433Z,98053.52
2019-02-28T05:56:17.750Z,98050.52
2019-02-28T05:57:26.620Z,98041.17
2019-02-28T05:58:35.146Z,98041.09
2019-02-28T05:59:43.614Z,98040.14
2019-02-28T06:00:52.006Z,98041.34
2019-02-28T06:02:00.327Z,98039.91
2019-02-28T06:03:08.743Z,98039.06
2019-02-28T06:04:16.768Z,98028.89
2019-02-28T06:05:25.260Z,98030.09
2019-02-28T06:06:33.184Z,98024.34
2019-02-28T06:07:41.463Z,98033.95
2019-02-28T06:08:49.427Z,98027.84
2019-02-28T06:09:57.898Z,98013.71
2019-02-28T06:11:06.152Z,98021.98
2019-02-28T06:12:14.437Z,98023.66
2019-02-28T06:13:22.741Z,98022.70
2019-02-28T06:14:31.529Z,98026.30
2019-02-28T06:15:39.731Z,98020.06
2019-02-28T06:16:48.447Z,98019.59
2019-02-28T06:17:56.863Z,98019.95
2019-02-28T06:19:08.360Z,98017.23
2019-02-28T06:20:16.898Z,98011.08
2019-02-28T06:21:26.586Z,98014.95
2019-02-28T06:22:36.315Z,98011.00
2019-02-28T06:23:45.586Z,98008.12
2019-02-28T06:24:53.878Z,98009.21
2019-02-28T06:26:02.231Z,98016.20
2019-02-28T06:27:10.646Z,98011.65
2019-02-28T06:28:19.040Z,98014.05
2019-02-28T06:29:27.152Z,98013.36
2019-02-28T06:30:35.443Z,98013.77
2019-02-28T06:31:45.478Z,98007.89
2019-02-28T06:32:57.866Z,98000.22
2019-02-28T06:34:05.681Z,98007.45
2019-02-28T06:35:17.651Z,98008.65
2019-02-28T06:36:25.687Z,98000.26
2019-02-28T06:37:35.389Z,98003.62
2019-02-28T06:38:43.364Z,98001.38
2019-02-28T06:39:51.908Z,98006.28
2019-02-28T06:41:00.242Z,98000.41
2019-02-28T06:42:11.848Z,97993.12
2019-02-28T06:43:19.489Z,97996.36
2019-02-28T06:44:27.867Z,97993.04
2019-02-28T06:45:37.625Z,97986.20
2019-02-28T06:46:50.031Z,97979.39
2019-02-28T06:48:00.792Z,97982.98
2019-02-28T06:49:10.679Z,97981.45
2019-02-28T06:50:20.733Z,97972.72
2019-02-28T06:51:32.106Z,97967.08
2019-02-28T06:52:46.429Z,97974.78
2019-02-28T06:53:59.536Z,97969.97
2019-02-28T06:55:19.281Z,97971.44
2019-02-28T06:56:30.827Z,97965.34
2019-02-28T06:57:39.178Z,97962.68
2019-02-28T06:58:47.554Z,97950.31
2019-02-28T06:59:55.816Z,97944.82
2019-02-28T07:01:04.298Z,97942.28
2019-02-28T07:02:12.538Z,97938.94
2019-02-28T07:03:20.800Z,97932.92
2019-02-28T07:04:29.112Z,97937.03
2019-02-28T07:05:37.349Z,97938.00
2019-02-28T07:06:45.338Z,97930.53
2019-02-28T07:07:54.761Z,97927.54
2019-02-28T07:09:03.154Z,97927.20
2019-02-28T07:10:17.371Z,97933.28
2019-02-28T07:11:25.414Z,97922.84
2019-02-28T07:12:33.787Z,97924.05
2019-02-28T07:13:42.211Z,97927.66
2019-02-28T07:14:50.612Z,97921.14
2019-02-28T07:15:59.835Z,97928.23
2019-02-28T07:17:10.761Z,97923.88
2019-02-28T07:18:19.849Z,97924.00
2019-02-28T07:19:28.179Z,97915.71
2019-02-28T07:20:36.701Z,97919.93
2019-02-28T07:21:44.954Z,97913.41
2019-02-28T07:22:55.598Z,97921.47
2019-02-28T07:24:03.787Z,97919.65
2019-02-28T07:25:13.931Z,97920.58
2019-02-28T07:26:21.992Z,97915.27
2019-02-28T07:27:30.051Z,97912.75
2019-02-28T07:28:38.514Z,97914.51
2019-02-28T07:29:46.872Z,97910.52
2019-02-28T07:30:55.266Z,97914.47
2019-02-28T07:32:03.822Z,97910.62
2019-02-28T07:33:11.873Z,97904.78
2019-02-28T07:34:23.798Z,97904.90
2019-02-28T07:35:34.208Z,97909.69
2019-02-28T07:36:41.470Z,97910.61
2019-02-28T07:37:53.202Z,97907.58
2019-02-28T07:39:01.290Z,97915.50
2019-02-28T07:40:16.281Z,97914.15
2019-02-28T07:41:26.461Z,97913.98
2019-02-28T07:42:33.702Z,97914.06
2019-02-28T07:43:45.909Z,97910.55
2019-02-28T07:44:53.697Z,97910.52
2019-02-28T07:46:04.499Z,97905.15
2019-02-28T07:47:16.998Z,97899.47
2019-02-28T07:48:26.399Z,97899.44
2019-02-28T07:49:35.566Z,97895.53
2019-02-28T07:50:43.584Z,97896.33
2019-02-28T07:51:51.262Z,97890.29
2019-02-28T07:52:59.781Z,97896.25
2019-02-28T07:54:08.440Z,97888.25
2019-02-28T07:55:21.557Z,97885.17
2019-02-28T07:56:29.796Z,97884.30
2019-02-28T07:57:38.213Z,97883.27
2019-02-28T07:58:46.346Z,97873.94
2019-02-28T07:59:54.715Z,97867.03
2019-02-28T08:01:02.951Z,97876.29
2019-02-28T08:02:11.322Z,97878.41
2019-02-28T08:03:19.833Z,97870.50
2019-02-28T08:04:27.910Z,97864.80
2019-02-28T08:05:35.924Z,97864.74
2019-02-28T08:06:43.860Z,97861.51
2019-02-28T08:07:52.714Z,97867.10
2019-02-28T08:09:01.791Z,97860.06
2019-02-28T08:10:29.904Z,97840.09
2019-02-28T08:11:37.918Z,97830.37
2019-02-28T08:12:46.013Z,97837.09
2019-02-28T08:13:55.545Z,97839.67
2019-02-28T08:15:04.665Z,97838.24
2019-02-28T08:16:12.789Z,97839.16
2019-02-28T08:17:20.799Z,97835.25
2019-02-28T08:18:28.953Z,97833.48
2019-02-28T08:19:36.898Z,97833.06
2019-02-28T08:20:45.006Z,97831.81
2019-02-28T08:21:53.280Z,97828.70
2019-02-28T08:23:01.369Z,97826.63
2019-02-28T08:24:09.799Z,97822.67
2019-02-28T08:25:18.462Z,97818.05
2019-02-28T08:26:26.462Z,97816.30
2019-02-28T08:27:34.680Z,97809.51
2019-02-28T08:28:43.163Z,97813.75
2019-02-28T08:29:51.251Z,97823.13
2019-02-28T08:30:59.674Z,97814.02
2019-02-28T08:32:08.219Z,97821.06
2019-02-28T08:33:17.173Z,97807.20
2019-02-28T08:34:25.390Z,97796.11
2019-02-28T08:35:34.975Z,97815.27
2019-02-28T08:36:43.823Z,97796.36
2019-02-28T08:37:57.153Z,97809.56
2019-02-28T08:39:02.798Z,97802.77
2019-02-28T08:40:16.329Z,97802.14
2019-02-28T08:41:25.695Z,97798.19
2019-02-28T08:42:38.648Z,97798.78
2019-02-28T08:43:44.579Z,97794.82
2019-02-28T08:44:58.099Z,97786.19
2019-02-28T08:46:09.561Z,97801.38
2019-02-28T08:47:13.171Z,97790.42
2019-02-28T08:48:21.253Z,97790.82
2019-02-28T08:49:29.481Z,97795.70
2019-02-28T08:50:37.728Z,97791.24
2019-02-28T08:51:46.020Z,97784.81
2019-02-28T08:53:03.796Z,97782.67
2019-02-28T08:54:11.750Z,97784.73
2019-02-28T08:55:28.144Z,97775.59
2019-02-28T08:56:29.710Z,97779.80
2019-02-28T08:57:37.918Z,97788.30
2019-02-28T08:58:45.882Z,97776.88
2019-02-28T08:59:56.114Z,97778.72
2019-02-28T09:01:06.533Z,97779.61
2019-02-28T09:02:18.320Z,97771.64
2019-02-28T09:03:27.423Z,97778.84
2019-02-28T09:04:41.025Z,97764.92
2019-02-28T09:05:44.677Z,97757.95
2019-02-28T09:06:53.090Z,97766.48
2019-02-28T09:08:01.584Z,97758.51
2019-02-28T09:09:12.149Z,97766.88
2019-02-28T09:10:23.215Z,97764.72
2019-02-28T09:11:31.311Z,97788.05
2019-02-28T09:12:39.581Z,97762.27
2019-02-28T09:13:47.668Z,97769.26
2019-02-28T09:14:56.342Z,97772.26
2019-02-28T09:16:05.548Z,97776.42
2019-02-28T09:17:15.528Z,97770.14
2019-02-28T09:18:23.698Z,97780.18
2019-02-28T09:19:32.638Z,97780.85
2019-02-28T09:20:45.107Z,97773.73
2019-02-28T09:21:52.885Z,97768.79
2019-02-28T09:23:02.186Z,97767.96
2019-02-28T09:24:12.696Z,97772.50
2019-02-28T09:25:26.948Z,97771.58
2019-02-28T09:26:35.309Z,97768.91
2019-02-28T09:27:43.783Z,97748.30
2019-02-28T09:28:51.838Z,97743.64
2019-02-28T09:29:59.989Z,97751.16
2019-02-28T09:31:08.283Z,97742.67
2019-02-28T09:32:17.620Z,97737.37
2019-02-28T09:33:25.905Z,97734.70
2019-02-28T09:34:34.190Z,97738.23
2019-02-28T09:35:45.328Z,97738.73
2019-02-28T09:36:55.220Z,97753.42
2019-02-28T09:38:06.425Z,97746.43
2019-02-28T09:39:11.961Z,97746.13
2019-02-28T09:40:20.303Z,97747.45
2019-02-28T09:41:28.399Z,97751.98
2019-02-28T09:42:36.650Z,97746.64
2019-02-28T09:43:44.839Z,97758.17
2019-02-28T09:44:53.200Z,97759.33
2019-02-28T09:46:01.410Z,97760.36
2019-02-28T09:47:11.716Z,97741.53
2019-02-28T09:48:19.682Z,97745.86
2019-02-28T09:49:27.903Z,97744.86
2019-02-28T09:50:35.872Z,97748.36
2019-02-28T09:51:44.170Z,97733.36
2019-02-28T09:52:52.494Z,97744.86
2019-02-28T09:54:00.579Z,97740.19
2019-02-28T09:55:10.820Z,97742.21
2019-02-28T09:56:19.474Z,97737.04
2019-02-28T09:57:27.698Z,97733.20
2019-02-28T09:58:35.779Z,97737.22
2019-02-28T09:59:43.897Z,97718.71
2019-02-28T10:00:51.885Z,97726.91
2019-02-28T10:02:01.823Z,97716.56
2019-02-28T10:03:10.071Z,97729.41
2019-02-28T10:04:18.452Z,97743.58
2019-02-28T10:05:26.942Z,97731.73
2019-02-28T10:06:35.297Z,97722.58
2019-02-28T10:07:43.306Z,97711.56
2019-02-28T10:08:51.282Z,97726.06
2019-02-28T10:09:59.352Z,97724.59
2019-02-28T10:11:07.448Z,97721.58
2019-02-28T10:12:15.623Z,97700.39
2019-02-28T10:13:23.725Z,97705.91
2019-02-28T10:14:31.944Z,97715.91
2019-02-28T10:15:41.740Z,97697.89
2019-02-28T10:16:52.650Z,97703.92
2019-02-28T10:18:00.732Z,97698.22
2019-02-28T10:19:10.247Z,97706.23
2019-02-28T10:20:40.193Z,97704.23
2019-02-28T10:21:52.148Z,97721.25
2019-02-28T10:22:58.637Z,97706.56
2019-02-28T10:24:06.914Z,97705.23
2019-02-28T10:25:16.599Z,97684.88
2019-02-28T10:26:25.141Z,97703.25
2019-02-28T10:27:33.269Z,97700.91
2019-02-28T10:28:41.838Z,97696.58
2019-02-28T10:29:50.216Z,97705.91
2019-02-28T10:30:58.579Z,97676.23
2019-02-28T10:32:09.000Z,97700.91
2019-02-28T10:33:17.349Z,97701.56
2019-02-28T10:34:27.250Z,97699.56
2019-02-28T10:35:36.740Z,97699.24
2019-02-28T10:36:47.963Z,97687.06
2019-02-28T10:37:58.550Z,97684.04
2019-02-28T10:39:08.865Z,97678.20
2019-02-28T10:40:25.853Z,97678.89
2019-02-28T10:41:33.811Z,97664.21
2019-02-28T10:42:41.838Z,97670.05
2019-02-28T10:43:52.243Z,97669.22
2019-02-28T10:45:00.009Z,97661.21
2019-02-28T10:46:08.242Z,97656.86
2019-02-28T10:47:16.623Z,97662.55
2019-02-28T10:48:24.977Z,97659.05
2019-02-28T10:49:33.043Z,97643.04
2019-02-28T10:50:41.759Z,97652.53
2019-02-28T10:51:50.442Z,97637.85
2019-02-28T10:53:04.213Z,97627.86
2019-02-28T10:54:11.234Z,97631.36
2019-02-28T10:55:22.204Z,97642.88
2019-02-28T10:56:32.049Z,97631.52
2019-02-28T10:57:40.622Z,97617.98
2019-02-28T10:58:50.076Z,97651.86
2019-02-28T10:59:59.434Z,97624.16
2019-02-28T11:01:10.598Z,97630.16
2019-02-28T11:02:20.678Z,97631.67
2019-02-28T11:03:32.428Z,97639.48
2019-02-28T11:04:42.887Z,97644.98
2019-02-28T11:05:53.344Z,97631.13
2019-02-28T11:07:02.219Z,97651.48
2019-02-28T11:08:13.677Z,97647.27
2019-02-28T11:09:25.252Z,97630.05
2019-02-28T11:10:41.297Z,97643.05
2019-02-28T11:11:49.408Z,97645.69
2019-02-28T11:12:57.925Z,97645.18
2019-02-28T11:14:06.381Z,97632.28
2019-02-28T11:15:15.582Z,97646.61
2019-02-28T11:16:24.549Z,97639.89
2019-02-28T11:17:34.157Z,97627.98
2019-02-28T11:18:42.799Z,97640.30
2019-02-28T11:19:51.987Z,97643.14
2019-02-28T11:21:00.950Z,97639.77
2019-02-28T11:22:09.305Z,97644.55
2019-02-28T11:23:18.002Z,97644.52
2019-02-28T11:24:28.057Z,97641.48
2019-02-28T11:25:36.491Z,97646.31
2019-02-28T11:26:45.597Z,97636.06
2019-02-28T11:27:54.678Z,97638.54
2019-02-28T11:29:03.904Z,97659.23
2019-02-28T11:30:28.037Z,97642.94
2019-02-28T11:31:36.264Z,97654.46
2019-02-28T11:32:44.716Z,97649.73
2019-02-28T11:33:53.058Z,97651.19
2019-02-28T11:35:01.246Z,97660.98
2019-02-28T11:36:09.349Z,97664.29
2019-02-28T11:37:17.984Z,97655.69
2019-02-28T11:38:25.944Z,97660.33
2019-02-28T11:39:33.961Z,97656.09
2019-02-28T11:40:43.907Z,97676.48
2019-02-28T11:41:52.650Z,97653.02
2019-02-28T11:43:04.114Z,97663.67
2019-02-28T11:44:12.938Z,97650.89
2019-02-28T11:45:30.906Z,97655.70
2019-02-28T11:46:38.993Z,97659.16
2019-02-28T11:47:49.087Z,97648.72
2019-02-28T11:48:57.046Z,97651.69
2019-02-28T11:50:07.825Z,97653.67
2019-02-28T11:51:17.621Z,97643.27
2019-02-28T11:52:27.362Z,97654.81
2019-02-28T11:53:39.328Z,97650.98
2019-02-28T11:54:45.873Z,97634.91
2019-02-28T11:55:54.482Z,97648.18
2019-02-28T11:57:04.425Z,97624.92
2019-02-28T11:58:16.284Z,97646.36
2019-02-28T11:59:24.106Z,97640.81
2019-02-28T12:00:38.503Z,97647.98
2019-02-28T12:01:48.344Z,97621.31
2019-02-28T12:03:00.776Z,97639.84
2019-02-28T12:04:06.994Z,97642.14
2019-02-28T12:05:15.692Z,97632.73
2019-02-28T12:06:25.766Z,97635.28
2019-02-28T12:07:34.890Z,97630.75
2019-02-28T12:08:45.015Z,97620.98
2019-02-28T12:09:54.768Z,97621.77
2019-02-28T12:11:04.065Z,97643.53
2019-02-28T12:12:12.397Z,97628.91
2019-02-28T12:13:20.750Z,97609.95
2019-02-28T12:14:30.015Z,97626.52
2019-02-28T12:15:40.739Z,97606.72
2019-02-28T12:16:52.711Z,97600.45
2019-02-28T12:18:03.626Z,97613.19
2019-02-28T12:19:08.507Z,97619.81
2019-02-28T12:20:16.987Z,97612.56
2019-02-28T12:21:25.147Z,97605.81
2019-02-28T12:22:33.232Z,97601.40
2019-02-28T12:23:41.305Z,97593.16
2019-02-28T12:24:49.695Z,97592.08
2019-02-28T12:25:57.997Z,97599.23
2019-02-28T12:27:06.332Z,97599.52
2019-02-28T12:28:14.634Z,97606.70
2019-02-28T12:29:22.880Z,97593.91
2019-02-28T12:30:35.242Z,97603.62
2019-02-28T12:31:43.351Z,97585.47
2019-02-28T12:32:52.589Z,97597.03
2019-02-28T12:34:00.861Z,97597.03
2019-02-28T12:35:09.689Z,97593.00
2019-02-28T12:36:17.617Z,97588.34
2019-02-28T12:37:25.609Z,97591.66
2019-02-28T12:38:33.930Z,97596.72
2019-02-28T12:39:41.896Z,97584.95
2019-02-28T12:40:49.950Z,97597.86
2019-02-28T12:41:59.577Z,97598.88
2019-02-28T12:43:10.496Z,97590.64
2019-02-28T12:44:18.440Z,97610.40
2019-02-28T12:45:33.091Z,97587.39
2019-02-28T12:46:41.215Z,97599.58
2019-02-28T12:47:49.435Z,97618.20
2019-02-28T12:48:57.528Z,97606.24
2019-02-28T12:50:09.806Z,97590.09
2019-02-28T12:51:18.318Z,97595.94
2019-02-28T12:52:27.034Z,97588.75
2019-02-28T12:53:35.710Z,97584.00
2019-02-28T12:54:43.753Z,97590.98
2019-02-28T12:55:52.021Z,97588.72
2019-02-28T12:57:00.256Z,97588.98
2019-02-28T12:58:08.468Z,97595.09
2019-02-28T12:59:16.756Z,97589.16
2019-02-28T13:00:34.290Z,97595.09
2019-02-28T13:01:42.241Z,97592.84
2019-02-28T13:02:50.297Z,97592.78
2019-02-28T13:04:00.653Z,97593.72
2019-02-28T13:05:14.810Z,97584.00
2019-02-28T13:06:23.849Z,97579.87
2019-02-28T13:07:33.860Z,97583.06
2019-02-28T13:08:42.383Z,97581.92
2019-02-28T13:09:51.547Z,97576.04
2019-02-28T13:11:04.531Z,97594.18
2019-02-28T13:12:12.125Z,97579.41
2019-02-28T13:13:23.239Z,97585.61
2019-02-28T13:14:31.249Z,97582.04
2019-02-28T13:15:39.394Z,97595.47
2019-02-28T13:16:47.387Z,97586.38
2019-02-28T13:17:55.911Z,97575.13
2019-02-28T13:19:04.719Z,97578.13
2019-02-28T13:20:18.534Z,97581.46
2019-02-28T13:21:26.651Z,97581.89
2019-02-28T13:22:36.400Z,97559.68
2019-02-28T13:23:44.799Z,97571.08
2019-02-28T13:24:53.109Z,97575.02
2019-02-28T13:26:01.437Z,97589.02
2019-02-28T13:27:10.874Z,97579.03
2019-02-28T13:28:22.418Z,97570.19
2019-02-28T13:29:32.509Z,97555.34
2019-02-28T13:30:40.155Z,97568.47